sensor_id;sensor_type;location;lat;lon;timestamp;P1;durP1;ratioP1;P2;durP2;ratioP2
9260;SDS011;4667;42.726;23.252;2023-08-07T00:00:41;2.13;;;1.50;;
9260;SDS011;4667;42.726;23.252;2023-08-07T00:03:08;3.23;;;1.40;;
9260;SDS011;4667;42.726;23.252;2023-08-07T00:05:37;1.50;;;1.40;;
9260;SDS011;4667;42.726;23.252;2023-08-07T00:08:04;1.80;;;1.60;;
9260;SDS011;4667;42.726;23.252;2023-08-07T00:10:31;3.37;;;1.70;;
9260;SDS011;4667;42.726;23.252;2023-08-07T00:12:58;3.00;;;1.70;;
9260;SDS011;4667;42.726;23.252;2023-08-07T00:15:24;2.33;;;1.83;;
9260;SDS011;4667;42.726;23.252;2023-08-07T00:17:51;2.57;;;1.80;;
9260;SDS011;4667;42.726;23.252;2023-08-07T00:20:18;1.77;;;1.43;;
9260;SDS011;4667;42.726;23.252;2023-08-07T00:22:46;1.83;;;1.60;;
9260;SDS011;4667;42.726;23.252;2023-08-07T00:25:13;2.77;;;2.00;;
9260;SDS011;4667;42.726;23.252;2023-08-07T00:27:39;1.87;;;1.77;;
9260;SDS011;4667;42.726;23.252;2023-08-07T00:30:06;2.03;;;1.83;;
9260;SDS011;4667;42.726;23.252;2023-08-07T00:32:34;2.47;;;1.83;;
9260;SDS011;4667;42.726;23.252;2023-08-07T00:35:00;3.80;;;1.80;;
9260;SDS011;4667;42.726;23.252;2023-08-07T00:37:27;2.60;;;1.90;;
9260;SDS011;4667;42.726;23.252;2023-08-07T00:39:55;2.60;;;2.10;;
9260;SDS011;4667;42.726;23.252;2023-08-07T00:42:22;2.10;;;1.90;;
9260;SDS011;4667;42.726;23.252;2023-08-07T00:44:48;2.70;;;2.50;;
9260;SDS011;4667;42.726;23.252;2023-08-07T00:47:15;3.47;;;2.37;;
9260;SDS011;4667;42.726;23.252;2023-08-07T00:49:42;2.57;;;2.27;;
9260;SDS011;4667;42.726;23.252;2023-08-07T00:52:09;4.73;;;2.20;;
9260;SDS011;4667;42.726;23.252;2023-08-07T00:54:36;2.90;;;2.40;;
9260;SDS011;4667;42.726;23.252;2023-08-07T00:57:07;3.17;;;2.20;;
9260;SDS011;4667;42.726;23.252;2023-08-07T00:59:36;3.10;;;2.23;;
9260;SDS011;4667;42.726;23.252;2023-08-07T01:02:04;2.80;;;2.60;;
9260;SDS011;4667;42.726;23.252;2023-08-07T01:04:32;2.40;;;2.20;;
9260;SDS011;4667;42.726;23.252;2023-08-07T01:06:58;2.80;;;2.60;;
9260;SDS011;4667;42.726;23.252;2023-08-07T01:09:25;3.07;;;2.60;;
9260;SDS011;4667;42.726;23.252;2023-08-07T01:11:54;4.03;;;3.33;;
9260;SDS011;4667;42.726;23.252;2023-08-07T01:14:29;4.60;;;3.50;;
9260;SDS011;4667;42.726;23.252;2023-08-07T01:17:05;4.00;;;3.60;;
9260;SDS011;4667;42.726;23.252;2023-08-07T01:19:36;3.80;;;3.50;;
9260;SDS011;4667;42.726;23.252;2023-08-07T01:22:05;3.17;;;2.87;;
9260;SDS011;4667;42.726;23.252;2023-08-07T01:24:32;4.73;;;3.20;;
9260;SDS011;4667;42.726;23.252;2023-08-07T01:27:00;3.47;;;3.17;;
9260;SDS011;4667;42.726;23.252;2023-08-07T01:29:36;3.87;;;3.33;;
9260;SDS011;4667;42.726;23.252;2023-08-07T01:32:08;4.53;;;2.90;;
9260;SDS011;4667;42.726;23.252;2023-08-07T01:34:38;3.47;;;3.17;;
9260;SDS011;4667;42.726;23.252;2023-08-07T01:37:08;3.70;;;3.23;;
9260;SDS011;4667;42.726;23.252;2023-08-07T01:39:37;3.90;;;3.50;;
9260;SDS011;4667;42.726;23.252;2023-08-07T01:42:05;3.97;;;3.50;;
9260;SDS011;4667;42.726;23.252;2023-08-07T01:44:33;4.77;;;3.07;;
9260;SDS011;4667;42.726;23.252;2023-08-07T01:47:00;4.17;;;3.30;;
9260;SDS011;4667;42.726;23.252;2023-08-07T01:49:26;3.73;;;3.07;;
9260;SDS011;4667;42.726;23.252;2023-08-07T01:51:53;3.80;;;2.87;;
9260;SDS011;4667;42.726;23.252;2023-08-07T01:54:21;6.20;;;3.13;;
9260;SDS011;4667;42.726;23.252;2023-08-07T01:56:48;2.97;;;2.77;;
9260;SDS011;4667;42.726;23.252;2023-08-07T01:59:14;3.33;;;3.03;;
9260;SDS011;4667;42.726;23.252;2023-08-07T02:01:41;4.97;;;2.83;;
9260;SDS011;4667;42.726;23.252;2023-08-07T02:04:08;4.40;;;3.10;;
9260;SDS011;4667;42.726;23.252;2023-08-07T02:06:34;2.90;;;2.70;;
9260;SDS011;4667;42.726;23.252;2023-08-07T02:09:01;4.93;;;3.20;;
9260;SDS011;4667;42.726;23.252;2023-08-07T02:11:29;3.93;;;3.57;;
9260;SDS011;4667;42.726;23.252;2023-08-07T02:13:56;5.67;;;3.43;;
9260;SDS011;4667;42.726;23.252;2023-08-07T02:16:22;3.67;;;3.37;;
9260;SDS011;4667;42.726;23.252;2023-08-07T02:18:49;4.20;;;3.80;;
9260;SDS011;4667;42.726;23.252;2023-08-07T02:21:16;4.27;;;3.90;;
9260;SDS011;4667;42.726;23.252;2023-08-07T02:23:43;4.03;;;3.63;;
9260;SDS011;4667;42.726;23.252;2023-08-07T02:26:09;4.60;;;4.20;;
9260;SDS011;4667;42.726;23.252;2023-08-07T02:28:37;4.77;;;4.33;;
9260;SDS011;4667;42.726;23.252;2023-08-07T02:31:04;4.13;;;3.73;;
9260;SDS011;4667;42.726;23.252;2023-08-07T02:33:31;4.50;;;4.10;;
9260;SDS011;4667;42.726;23.252;2023-08-07T02:35:57;5.13;;;4.00;;
9260;SDS011;4667;42.726;23.252;2023-08-07T02:38:24;5.23;;;4.40;;
9260;SDS011;4667;42.726;23.252;2023-08-07T02:40:51;4.90;;;4.50;;
9260;SDS011;4667;42.726;23.252;2023-08-07T02:43:18;6.93;;;4.63;;
9260;SDS011;4667;42.726;23.252;2023-08-07T02:45:46;5.33;;;4.83;;
9260;SDS011;4667;42.726;23.252;2023-08-07T02:48:12;4.40;;;4.00;;
9260;SDS011;4667;42.726;23.252;2023-08-07T02:50:39;4.70;;;4.30;;
9260;SDS011;4667;42.726;23.252;2023-08-07T02:53:06;4.67;;;4.20;;
9260;SDS011;4667;42.726;23.252;2023-08-07T02:55:33;4.80;;;4.30;;
9260;SDS011;4667;42.726;23.252;2023-08-07T02:57:59;4.97;;;4.07;;
9260;SDS011;4667;42.726;23.252;2023-08-07T03:00:26;4.47;;;4.07;;
9260;SDS011;4667;42.726;23.252;2023-08-07T03:02:54;4.50;;;4.10;;
9260;SDS011;4667;42.726;23.252;2023-08-07T03:05:21;4.47;;;4.07;;
9260;SDS011;4667;42.726;23.252;2023-08-07T03:07:48;4.57;;;4.17;;
9260;SDS011;4667;42.726;23.252;2023-08-07T03:10:14;4.67;;;4.27;;
9260;SDS011;4667;42.726;23.252;2023-08-07T03:12:41;4.57;;;4.17;;
9260;SDS011;4667;42.726;23.252;2023-08-07T03:15:08;6.43;;;4.13;;
9260;SDS011;4667;42.726;23.252;2023-08-07T03:17:36;5.73;;;4.43;;
9260;SDS011;4667;42.726;23.252;2023-08-07T03:20:04;5.17;;;4.10;;
9260;SDS011;4667;42.726;23.252;2023-08-07T03:22:31;5.10;;;4.27;;
9260;SDS011;4667;42.726;23.252;2023-08-07T03:24:58;4.40;;;4.00;;
9260;SDS011;4667;42.726;23.252;2023-08-07T03:27:25;4.20;;;3.90;;
9260;SDS011;4667;42.726;23.252;2023-08-07T03:29:51;5.93;;;4.10;;
9260;SDS011;4667;42.726;23.252;2023-08-07T03:32:18;6.10;;;3.80;;
9260;SDS011;4667;42.726;23.252;2023-08-07T03:34:45;8.50;;;4.23;;
9260;SDS011;4667;42.726;23.252;2023-08-07T03:37:13;5.37;;;4.13;;
9260;SDS011;4667;42.726;23.252;2023-08-07T03:39:40;5.63;;;5.13;;
9260;SDS011;4667;42.726;23.252;2023-08-07T03:42:08;4.90;;;3.70;;
9260;SDS011;4667;42.726;23.252;2023-08-07T03:44:35;3.80;;;3.40;;
9260;SDS011;4667;42.726;23.252;2023-08-07T03:47:02;6.03;;;3.93;;
9260;SDS011;4667;42.726;23.252;2023-08-07T03:49:29;3.90;;;3.60;;
9260;SDS011;4667;42.726;23.252;2023-08-07T03:51:55;4.40;;;3.83;;
9260;SDS011;4667;42.726;23.252;2023-08-07T03:54:25;5.07;;;4.00;;
9260;SDS011;4667;42.726;23.252;2023-08-07T03:56:52;5.60;;;3.67;;
9260;SDS011;4667;42.726;23.252;2023-08-07T03:59:19;4.93;;;3.53;;
9260;SDS011;4667;42.726;23.252;2023-08-07T04:01:45;5.20;;;3.63;;
9260;SDS011;4667;42.726;23.252;2023-08-07T04:04:12;3.90;;;3.60;;
9260;SDS011;4667;42.726;23.252;2023-08-07T04:06:39;5.20;;;3.30;;
9260;SDS011;4667;42.726;23.252;2023-08-07T04:09:06;5.20;;;3.60;;
9260;SDS011;4667;42.726;23.252;2023-08-07T04:11:34;4.33;;;3.93;;
9260;SDS011;4667;42.726;23.252;2023-08-07T04:14:01;3.83;;;3.53;;
9260;SDS011;4667;42.726;23.252;2023-08-07T04:16:29;4.07;;;3.67;;
9260;SDS011;4667;42.726;23.252;2023-08-07T04:18:56;5.53;;;3.40;;
9260;SDS011;4667;42.726;23.252;2023-08-07T04:21:23;4.30;;;3.90;;
9260;SDS011;4667;42.726;23.252;2023-08-07T04:23:50;5.23;;;3.60;;
9260;SDS011;4667;42.726;23.252;2023-08-07T04:26:16;5.13;;;3.80;;
9260;SDS011;4667;42.726;23.252;2023-08-07T04:28:45;4.03;;;3.70;;
9260;SDS011;4667;42.726;23.252;2023-08-07T04:31:11;5.03;;;3.40;;
9260;SDS011;4667;42.726;23.252;2023-08-07T04:33:38;4.33;;;3.93;;
9260;SDS011;4667;42.726;23.252;2023-08-07T04:36:05;4.90;;;3.87;;
9260;SDS011;4667;42.726;23.252;2023-08-07T04:38:32;6.80;;;3.30;;
9260;SDS011;4667;42.726;23.252;2023-08-07T04:40:58;4.63;;;3.80;;
9260;SDS011;4667;42.726;23.252;2023-08-07T04:43:25;4.53;;;4.13;;
9260;SDS011;4667;42.726;23.252;2023-08-07T04:45:54;5.33;;;4.00;;
9260;SDS011;4667;42.726;23.252;2023-08-07T04:48:21;4.60;;;4.17;;
9260;SDS011;4667;42.726;23.252;2023-08-07T04:50:50;4.40;;;4.00;;
9260;SDS011;4667;42.726;23.252;2023-08-07T04:53:17;5.00;;;3.63;;
9260;SDS011;4667;42.726;23.252;2023-08-07T04:55:43;6.30;;;3.73;;
9260;SDS011;4667;42.726;23.252;2023-08-07T04:58:10;3.73;;;3.43;;
9260;SDS011;4667;42.726;23.252;2023-08-07T05:00:37;4.27;;;3.60;;
9260;SDS011;4667;42.726;23.252;2023-08-07T05:03:05;5.20;;;3.90;;
9260;SDS011;4667;42.726;23.252;2023-08-07T05:05:32;4.70;;;3.97;;
9260;SDS011;4667;42.726;23.252;2023-08-07T05:07:58;6.47;;;4.40;;
9260;SDS011;4667;42.726;23.252;2023-08-07T05:10:25;5.67;;;3.90;;
9260;SDS011;4667;42.726;23.252;2023-08-07T05:12:52;4.10;;;3.70;;
9260;SDS011;4667;42.726;23.252;2023-08-07T05:15:20;4.37;;;3.97;;
9260;SDS011;4667;42.726;23.252;2023-08-07T05:17:47;4.73;;;4.33;;
9260;SDS011;4667;42.726;23.252;2023-08-07T05:20:15;5.00;;;3.70;;
9260;SDS011;4667;42.726;23.252;2023-08-07T05:22:42;4.27;;;3.53;;
9260;SDS011;4667;42.726;23.252;2023-08-07T05:25:09;4.47;;;4.03;;
9260;SDS011;4667;42.726;23.252;2023-08-07T05:27:40;4.20;;;3.80;;
9260;SDS011;4667;42.726;23.252;2023-08-07T05:30:07;7.87;;;3.80;;
9260;SDS011;4667;42.726;23.252;2023-08-07T05:32:34;4.40;;;4.00;;
9260;SDS011;4667;42.726;23.252;2023-08-07T05:35:02;3.77;;;3.47;;
9260;SDS011;4667;42.726;23.252;2023-08-07T05:37:31;5.70;;;3.83;;
9260;SDS011;4667;42.726;23.252;2023-08-07T05:39:58;5.17;;;3.70;;
9260;SDS011;4667;42.726;23.252;2023-08-07T05:42:24;3.80;;;3.50;;
9260;SDS011;4667;42.726;23.252;2023-08-07T05:44:51;4.13;;;3.37;;
9260;SDS011;4667;42.726;23.252;2023-08-07T05:47:18;4.73;;;4.23;;
9260;SDS011;4667;42.726;23.252;2023-08-07T05:49:44;3.87;;;3.50;;
9260;SDS011;4667;42.726;23.252;2023-08-07T05:52:11;3.80;;;3.50;;
9260;SDS011;4667;42.726;23.252;2023-08-07T05:54:39;5.00;;;3.43;;
9260;SDS011;4667;42.726;23.252;2023-08-07T05:57:06;5.83;;;3.50;;
9260;SDS011;4667;42.726;23.252;2023-08-07T05:59:33;3.73;;;3.23;;
9260;SDS011;4667;42.726;23.252;2023-08-07T06:02:01;3.20;;;2.90;;
9260;SDS011;4667;42.726;23.252;2023-08-07T06:04:28;5.23;;;3.10;;
9260;SDS011;4667;42.726;23.252;2023-08-07T06:06:55;3.27;;;2.97;;
9260;SDS011;4667;42.726;23.252;2023-08-07T06:09:22;3.97;;;3.57;;
9260;SDS011;4667;42.726;23.252;2023-08-07T06:11:50;4.97;;;4.43;;
9260;SDS011;4667;42.726;23.252;2023-08-07T06:14:17;4.07;;;3.23;;
9260;SDS011;4667;42.726;23.252;2023-08-07T06:16:43;5.07;;;3.33;;
9260;SDS011;4667;42.726;23.252;2023-08-07T06:19:10;3.97;;;3.63;;
9260;SDS011;4667;42.726;23.252;2023-08-07T06:21:37;7.70;;;4.83;;
9260;SDS011;4667;42.726;23.252;2023-08-07T06:24:04;5.20;;;4.33;;
9260;SDS011;4667;42.726;23.252;2023-08-07T06:26:31;3.63;;;2.90;;
9260;SDS011;4667;42.726;23.252;2023-08-07T06:28:59;3.33;;;3.03;;
9260;SDS011;4667;42.726;23.252;2023-08-07T06:31:26;3.43;;;3.00;;
9260;SDS011;4667;42.726;23.252;2023-08-07T06:33:52;3.37;;;2.93;;
9260;SDS011;4667;42.726;23.252;2023-08-07T06:36:19;2.92;;;2.72;;
9260;SDS011;4667;42.726;23.252;2023-08-07T06:38:46;3.90;;;3.50;;
9260;SDS011;4667;42.726;23.252;2023-08-07T06:41:13;2.60;;;2.40;;
9260;SDS011;4667;42.726;23.252;2023-08-07T06:43:39;2.53;;;2.00;;
9260;SDS011;4667;42.726;23.252;2023-08-07T06:46:08;2.70;;;2.43;;
9260;SDS011;4667;42.726;23.252;2023-08-07T06:48:36;2.17;;;1.97;;
9260;SDS011;4667;42.726;23.252;2023-08-07T06:51:03;2.73;;;2.47;;
9260;SDS011;4667;42.726;23.252;2023-08-07T06:53:29;2.87;;;2.63;;
9260;SDS011;4667;42.726;23.252;2023-08-07T06:55:56;2.20;;;2.00;;
9260;SDS011;4667;42.726;23.252;2023-08-07T06:58:23;4.97;;;2.63;;
9260;SDS011;4667;42.726;23.252;2023-08-07T07:00:50;2.45;;;1.95;;
9260;SDS011;4667;42.726;23.252;2023-08-07T07:03:18;1.87;;;1.77;;
9260;SDS011;4667;42.726;23.252;2023-08-07T07:05:44;2.55;;;2.30;;
9260;SDS011;4667;42.726;23.252;2023-08-07T07:08:12;2.58;;;2.13;;
9260;SDS011;4667;42.726;23.252;2023-08-07T07:10:38;5.07;;;3.45;;
9260;SDS011;4667;42.726;23.252;2023-08-07T07:13:05;4.22;;;3.88;;
9260;SDS011;4667;42.726;23.252;2023-08-07T07:15:33;4.90;;;3.05;;
9260;SDS011;4667;42.726;23.252;2023-08-07T07:18:00;2.53;;;2.33;;
9260;SDS011;4667;42.726;23.252;2023-08-07T07:20:28;3.13;;;2.92;;
9260;SDS011;4667;42.726;23.252;2023-08-07T07:22:55;2.20;;;2.05;;
9260;SDS011;4667;42.726;23.252;2023-08-07T07:25:21;5.25;;;2.38;;
9260;SDS011;4667;42.726;23.252;2023-08-07T07:27:48;2.72;;;2.00;;
9260;SDS011;4667;42.726;23.252;2023-08-07T07:30:15;2.28;;;2.08;;
9260;SDS011;4667;42.726;23.252;2023-08-07T07:32:42;1.98;;;1.83;;
9260;SDS011;4667;42.726;23.252;2023-08-07T07:35:08;2.22;;;2.00;;
9260;SDS011;4667;42.726;23.252;2023-08-07T07:37:36;3.05;;;2.17;;
9260;SDS011;4667;42.726;23.252;2023-08-07T07:40:03;10.52;;;9.52;;
9260;SDS011;4667;42.726;23.252;2023-08-07T07:42:31;10.60;;;9.70;;
9260;SDS011;4667;42.726;23.252;2023-08-07T07:44:57;6.10;;;5.60;;
9260;SDS011;4667;42.726;23.252;2023-08-07T07:47:24;3.38;;;3.08;;
9260;SDS011;4667;42.726;23.252;2023-08-07T07:49:55;3.97;;;3.67;;
9260;SDS011;4667;42.726;23.252;2023-08-07T07:52:31;3.90;;;3.55;;
9260;SDS011;4667;42.726;23.252;2023-08-07T07:54:59;1.80;;;1.65;;
9260;SDS011;4667;42.726;23.252;2023-08-07T07:57:25;1.98;;;1.50;;
9260;SDS011;4667;42.726;23.252;2023-08-07T07:59:52;1.60;;;1.38;;
9260;SDS011;4667;42.726;23.252;2023-08-07T08:02:21;3.13;;;1.83;;
9260;SDS011;4667;42.726;23.252;2023-08-07T08:04:48;1.30;;;1.17;;
9260;SDS011;4667;42.726;23.252;2023-08-07T08:07:14;1.73;;;1.63;;
9260;SDS011;4667;42.726;23.252;2023-08-07T08:09:41;1.83;;;1.35;;
9260;SDS011;4667;42.726;23.252;2023-08-07T08:12:09;1.50;;;1.40;;
9260;SDS011;4667;42.726;23.252;2023-08-07T08:14:36;2.10;;;1.45;;
9260;SDS011;4667;42.726;23.252;2023-08-07T08:17:03;1.45;;;1.20;;
9260;SDS011;4667;42.726;23.252;2023-08-07T08:19:30;1.48;;;1.38;;
9260;SDS011;4667;42.726;23.252;2023-08-07T08:21:57;1.52;;;1.42;;
9260;SDS011;4667;42.726;23.252;2023-08-07T08:24:23;3.38;;;1.35;;
9260;SDS011;4667;42.726;23.252;2023-08-07T08:26:50;5.63;;;2.58;;
9260;SDS011;4667;42.726;23.252;2023-08-07T08:29:18;1.70;;;1.40;;
9260;SDS011;4667;42.726;23.252;2023-08-07T08:31:45;2.85;;;1.45;;
9260;SDS011;4667;42.726;23.252;2023-08-07T08:34:12;1.45;;;1.27;;
9260;SDS011;4667;42.726;23.252;2023-08-07T08:36:38;1.83;;;1.40;;
9260;SDS011;4667;42.726;23.252;2023-08-07T08:39:05;2.15;;;1.42;;
9260;SDS011;4667;42.726;23.252;2023-08-07T08:41:32;1.40;;;1.30;;
9260;SDS011;4667;42.726;23.252;2023-08-07T08:43:59;2.85;;;1.33;;
9260;SDS011;4667;42.726;23.252;2023-08-07T08:46:29;3.20;;;2.00;;
9260;SDS011;4667;42.726;23.252;2023-08-07T08:48:57;2.55;;;1.27;;
9260;SDS011;4667;42.726;23.252;2023-08-07T08:51:24;1.40;;;1.27;;
9260;SDS011;4667;42.726;23.252;2023-08-07T08:53:52;1.30;;;1.20;;
9260;SDS011;4667;42.726;23.252;2023-08-07T08:56:21;1.42;;;1.23;;
9260;SDS011;4667;42.726;23.252;2023-08-07T08:58:49;1.30;;;1.17;;
9260;SDS011;4667;42.726;23.252;2023-08-07T09:01:17;1.55;;;1.45;;
9260;SDS011;4667;42.726;23.252;2023-08-07T09:03:46;2.45;;;1.50;;
9260;SDS011;4667;42.726;23.252;2023-08-07T09:06:13;1.80;;;1.60;;
9260;SDS011;4667;42.726;23.252;2023-08-07T09:08:42;1.65;;;1.45;;
9260;SDS011;4667;42.726;23.252;2023-08-07T09:11:10;2.08;;;1.42;;
9260;SDS011;4667;42.726;23.252;2023-08-07T09:13:39;1.30;;;1.15;;
9260;SDS011;4667;42.726;23.252;2023-08-07T09:16:07;1.67;;;1.27;;
9260;SDS011;4667;42.726;23.252;2023-08-07T09:18:34;3.22;;;2.40;;
9260;SDS011;4667;42.726;23.252;2023-08-07T09:21:03;1.40;;;1.30;;
9260;SDS011;4667;42.726;23.252;2023-08-07T09:23:29;4.50;;;1.40;;
9260;SDS011;4667;42.726;23.252;2023-08-07T09:28:55;1.63;;;1.27;;
9260;SDS011;4667;42.726;23.252;2023-08-07T09:31:22;2.40;;;1.20;;
9260;SDS011;4667;42.726;23.252;2023-08-07T09:33:51;2.90;;;1.65;;
9260;SDS011;4667;42.726;23.252;2023-08-07T09:36:19;1.35;;;1.25;;
9260;SDS011;4667;42.726;23.252;2023-08-07T09:38:49;1.42;;;1.05;;
9260;SDS011;4667;42.726;23.252;2023-08-07T09:41:17;2.53;;;1.20;;
9260;SDS011;4667;42.726;23.252;2023-08-07T09:43:44;1.40;;;1.20;;
9260;SDS011;4667;42.726;23.252;2023-08-07T09:46:11;1.50;;;1.10;;
9260;SDS011;4667;42.726;23.252;2023-08-07T09:48:41;1.95;;;1.23;;
9260;SDS011;4667;42.726;23.252;2023-08-07T09:51:09;1.65;;;1.17;;
9260;SDS011;4667;42.726;23.252;2023-08-07T09:53:38;1.20;;;1.10;;
9260;SDS011;4667;42.726;23.252;2023-08-07T09:56:05;2.92;;;1.30;;
9260;SDS011;4667;42.726;23.252;2023-08-07T09:58:32;1.25;;;0.93;;
9260;SDS011;4667;42.726;23.252;2023-08-07T10:01:00;1.38;;;1.20;;
9260;SDS011;4667;42.726;23.252;2023-08-07T10:03:27;1.38;;;1.27;;
9260;SDS011;4667;42.726;23.252;2023-08-07T10:05:54;1.45;;;1.35;;
9260;SDS011;4667;42.726;23.252;2023-08-07T10:08:21;4.13;;;3.72;;
9260;SDS011;4667;42.726;23.252;2023-08-07T10:10:51;6.50;;;5.85;;
9260;SDS011;4667;42.726;23.252;2023-08-07T10:13:18;1.48;;;1.20;;
9260;SDS011;4667;42.726;23.252;2023-08-07T10:15:45;1.20;;;1.08;;
9260;SDS011;4667;42.726;23.252;2023-08-07T10:18:13;1.30;;;1.20;;
9260;SDS011;4667;42.726;23.252;2023-08-07T10:20:40;3.17;;;1.67;;
9260;SDS011;4667;42.726;23.252;2023-08-07T10:23:09;2.30;;;1.63;;
9260;SDS011;4667;42.726;23.252;2023-08-07T10:25:41;1.88;;;1.60;;
9260;SDS011;4667;42.726;23.252;2023-08-07T10:28:13;2.97;;;1.45;;
9260;SDS011;4667;42.726;23.252;2023-08-07T10:30:44;1.70;;;1.13;;
9260;SDS011;4667;42.726;23.252;2023-08-07T10:33:13;1.77;;;1.20;;
9260;SDS011;4667;42.726;23.252;2023-08-07T10:35:44;4.75;;;1.50;;
9260;SDS011;4667;42.726;23.252;2023-08-07T10:38:13;1.80;;;1.33;;
9260;SDS011;4667;42.726;23.252;2023-08-07T10:43:27;1.65;;;1.48;;
9260;SDS011;4667;42.726;23.252;2023-08-07T10:45:54;4.25;;;1.50;;
9260;SDS011;4667;42.726;23.252;2023-08-07T10:48:26;1.77;;;1.23;;
9260;SDS011;4667;42.726;23.252;2023-08-07T10:50:56;3.17;;;1.40;;
9260;SDS011;4667;42.726;23.252;2023-08-07T10:53:28;2.20;;;1.55;;
9260;SDS011;4667;42.726;23.252;2023-08-07T10:55:56;2.45;;;1.48;;
9260;SDS011;4667;42.726;23.252;2023-08-07T10:58:24;2.65;;;1.52;;
9260;SDS011;4667;42.726;23.252;2023-08-07T11:01:01;1.55;;;1.30;;
9260;SDS011;4667;42.726;23.252;2023-08-07T11:03:45;1.67;;;1.20;;
9260;SDS011;4667;42.726;23.252;2023-08-07T11:06:15;2.00;;;1.35;;
9260;SDS011;4667;42.726;23.252;2023-08-07T11:08:42;2.33;;;1.50;;
9260;SDS011;4667;42.726;23.252;2023-08-07T11:11:09;1.33;;;1.20;;
9260;SDS011;4667;42.726;23.252;2023-08-07T11:13:36;1.80;;;1.50;;
9260;SDS011;4667;42.726;23.252;2023-08-07T11:16:04;2.38;;;1.60;;
9260;SDS011;4667;42.726;23.252;2023-08-07T11:18:31;3.25;;;1.58;;
9260;SDS011;4667;42.726;23.252;2023-08-07T11:21:01;2.03;;;1.38;;
9260;SDS011;4667;42.726;23.252;2023-08-07T11:23:28;3.95;;;1.50;;
9260;SDS011;4667;42.726;23.252;2023-08-07T11:25:55;1.90;;;1.35;;
9260;SDS011;4667;42.726;23.252;2023-08-07T11:28:22;3.40;;;1.30;;
9260;SDS011;4667;42.726;23.252;2023-08-07T11:30:50;1.95;;;1.60;;
9260;SDS011;4667;42.726;23.252;2023-08-07T11:33:19;1.60;;;1.30;;
9260;SDS011;4667;42.726;23.252;2023-08-07T11:35:46;5.05;;;1.60;;
9260;SDS011;4667;42.726;23.252;2023-08-07T11:38:15;2.10;;;1.50;;
9260;SDS011;4667;42.726;23.252;2023-08-07T11:40:56;2.47;;;1.10;;
9260;SDS011;4667;42.726;23.252;2023-08-07T11:43:24;1.58;;;1.38;;
9260;SDS011;4667;42.726;23.252;2023-08-07T11:45:52;3.33;;;1.50;;
9260;SDS011;4667;42.726;23.252;2023-08-07T11:48:22;2.00;;;1.40;;
9260;SDS011;4667;42.726;23.252;2023-08-07T11:50:50;1.40;;;1.30;;
9260;SDS011;4667;42.726;23.252;2023-08-07T11:53:18;1.48;;;1.30;;
9260;SDS011;4667;42.726;23.252;2023-08-07T11:55:51;2.38;;;1.58;;
9260;SDS011;4667;42.726;23.252;2023-08-07T11:58:19;2.58;;;1.45;;
9260;SDS011;4667;42.726;23.252;2023-08-07T12:00:46;1.40;;;1.20;;
9260;SDS011;4667;42.726;23.252;2023-08-07T12:03:25;6.03;;;3.60;;
9260;SDS011;4667;42.726;23.252;2023-08-07T12:08:21;2.60;;;1.52;;
9260;SDS011;4667;42.726;23.252;2023-08-07T12:10:49;1.50;;;1.40;;
9260;SDS011;4667;42.726;23.252;2023-08-07T12:13:19;2.35;;;1.60;;
9260;SDS011;4667;42.726;23.252;2023-08-07T12:15:46;1.58;;;1.48;;
9260;SDS011;4667;42.726;23.252;2023-08-07T12:18:18;2.00;;;1.60;;
9260;SDS011;4667;42.726;23.252;2023-08-07T12:20:46;1.52;;;1.42;;
9260;SDS011;4667;42.726;23.252;2023-08-07T12:23:16;3.58;;;1.80;;
9260;SDS011;4667;42.726;23.252;2023-08-07T12:25:43;3.00;;;1.70;;
9260;SDS011;4667;42.726;23.252;2023-08-07T12:28:10;5.65;;;2.00;;
9260;SDS011;4667;42.726;23.252;2023-08-07T12:30:37;3.13;;;1.60;;
9260;SDS011;4667;42.726;23.252;2023-08-07T12:33:05;2.10;;;1.90;;
9260;SDS011;4667;42.726;23.252;2023-08-07T12:35:32;2.28;;;1.60;;
9260;SDS011;4667;42.726;23.252;2023-08-07T12:38:03;2.33;;;1.80;;
9260;SDS011;4667;42.726;23.252;2023-08-07T12:40:30;1.85;;;1.65;;
9260;SDS011;4667;42.726;23.252;2023-08-07T12:42:58;3.00;;;1.75;;
9260;SDS011;4667;42.726;23.252;2023-08-07T12:45:25;5.15;;;1.98;;
9260;SDS011;4667;42.726;23.252;2023-08-07T12:47:51;5.15;;;2.00;;
9260;SDS011;4667;42.726;23.252;2023-08-07T12:50:18;3.17;;;1.80;;
9260;SDS011;4667;42.726;23.252;2023-08-07T12:52:45;4.75;;;2.00;;
9260;SDS011;4667;42.726;23.252;2023-08-07T12:55:13;3.33;;;2.00;;
9260;SDS011;4667;42.726;23.252;2023-08-07T12:57:41;3.33;;;1.33;;
9260;SDS011;4667;42.726;23.252;2023-08-07T13:00:09;2.35;;;1.60;;
9260;SDS011;4667;42.726;23.252;2023-08-07T13:02:40;2.00;;;1.75;;
9260;SDS011;4667;42.726;23.252;2023-08-07T13:05:07;2.65;;;1.90;;
9260;SDS011;4667;42.726;23.252;2023-08-07T13:07:35;1.88;;;1.70;;
9260;SDS011;4667;42.726;23.252;2023-08-07T13:10:03;6.53;;;2.00;;
9260;SDS011;4667;42.726;23.252;2023-08-07T13:12:33;6.05;;;1.70;;
9260;SDS011;4667;42.726;23.252;2023-08-07T13:15:01;3.15;;;1.88;;
9260;SDS011;4667;42.726;23.252;2023-08-07T13:17:27;2.88;;;1.85;;
9260;SDS011;4667;42.726;23.252;2023-08-07T13:19:54;4.88;;;2.00;;
9260;SDS011;4667;42.726;23.252;2023-08-07T13:22:21;2.72;;;1.77;;
9260;SDS011;4667;42.726;23.252;2023-08-07T13:24:47;4.30;;;2.35;;
9260;SDS011;4667;42.726;23.252;2023-08-07T13:27:14;3.22;;;2.13;;
9260;SDS011;4667;42.726;23.252;2023-08-07T13:29:43;2.20;;;1.83;;
9260;SDS011;4667;42.726;23.252;2023-08-07T13:32:10;3.05;;;2.40;;
9260;SDS011;4667;42.726;23.252;2023-08-07T13:34:37;3.97;;;2.00;;
9260;SDS011;4667;42.726;23.252;2023-08-07T13:37:03;2.78;;;2.13;;
9260;SDS011;4667;42.726;23.252;2023-08-07T13:39:31;2.90;;;1.90;;
9260;SDS011;4667;42.726;23.252;2023-08-07T13:41:58;2.25;;;1.88;;
9260;SDS011;4667;42.726;23.252;2023-08-07T13:44:26;2.20;;;1.63;;
9260;SDS011;4667;42.726;23.252;2023-08-07T13:46:54;2.65;;;1.90;;
9260;SDS011;4667;42.726;23.252;2023-08-07T13:49:20;5.75;;;1.83;;
9260;SDS011;4667;42.726;23.252;2023-08-07T13:51:48;1.60;;;1.40;;
9260;SDS011;4667;42.726;23.252;2023-08-07T13:54:15;2.00;;;1.60;;
9260;SDS011;4667;42.726;23.252;2023-08-07T13:56:42;1.92;;;1.73;;
9260;SDS011;4667;42.726;23.252;2023-08-07T13:59:09;2.30;;;1.83;;
9260;SDS011;4667;42.726;23.252;2023-08-07T14:01:35;2.55;;;1.90;;
9260;SDS011;4667;42.726;23.252;2023-08-07T14:04:04;2.03;;;1.80;;
9260;SDS011;4667;42.726;23.252;2023-08-07T14:06:31;3.40;;;1.90;;
9260;SDS011;4667;42.726;23.252;2023-08-07T14:08:58;2.53;;;1.60;;
9260;SDS011;4667;42.726;23.252;2023-08-07T14:11:25;2.50;;;1.80;;
9260;SDS011;4667;42.726;23.252;2023-08-07T14:13:55;2.97;;;2.00;;
9260;SDS011;4667;42.726;23.252;2023-08-07T14:16:22;1.65;;;1.55;;
9260;SDS011;4667;42.726;23.252;2023-08-07T14:18:48;2.50;;;1.65;;
9260;SDS011;4667;42.726;23.252;2023-08-07T14:21:16;2.47;;;2.00;;
9260;SDS011;4667;42.726;23.252;2023-08-07T14:23:44;2.22;;;1.67;;
9260;SDS011;4667;42.726;23.252;2023-08-07T14:26:11;1.98;;;1.80;;
9260;SDS011;4667;42.726;23.252;2023-08-07T14:28:38;4.07;;;1.67;;
9260;SDS011;4667;42.726;23.252;2023-08-07T14:31:06;2.55;;;1.67;;
9260;SDS011;4667;42.726;23.252;2023-08-07T14:33:33;3.15;;;1.85;;
9260;SDS011;4667;42.726;23.252;2023-08-07T14:35:59;2.15;;;1.95;;
9260;SDS011;4667;42.726;23.252;2023-08-07T14:38:28;3.72;;;1.70;;
9260;SDS011;4667;42.726;23.252;2023-08-07T14:40:55;3.03;;;1.73;;
9260;SDS011;4667;42.726;23.252;2023-08-07T14:43:24;2.17;;;1.85;;
9260;SDS011;4667;42.726;23.252;2023-08-07T14:45:51;2.90;;;1.67;;
9260;SDS011;4667;42.726;23.252;2023-08-07T14:48:20;3.13;;;2.00;;
9260;SDS011;4667;42.726;23.252;2023-08-07T14:50:46;4.70;;;2.13;;
9260;SDS011;4667;42.726;23.252;2023-08-07T14:53:13;2.00;;;1.80;;
9260;SDS011;4667;42.726;23.252;2023-08-07T14:55:43;2.78;;;2.10;;
9260;SDS011;4667;42.726;23.252;2023-08-07T14:58:10;3.13;;;2.05;;
9260;SDS011;4667;42.726;23.252;2023-08-07T15:00:37;6.05;;;1.98;;
9260;SDS011;4667;42.726;23.252;2023-08-07T15:03:06;3.55;;;1.90;;
9260;SDS011;4667;42.726;23.252;2023-08-07T15:05:33;3.03;;;1.83;;
9260;SDS011;4667;42.726;23.252;2023-08-07T15:08:00;2.92;;;2.20;;
9260;SDS011;4667;42.726;23.252;2023-08-07T15:10:27;5.18;;;2.60;;